createdAt,value
2018-12-31T00:04:10.551Z,59.30
2018-12-31T00:06:58.688Z,59.40
2018-12-31T00:09:46.838Z,59.40
2018-12-31T00:12:35.025Z,59.40
2018-12-31T00:18:30.171Z,59.40
2018-12-31T00:21:18.081Z,59.40
2018-12-31T00:24:05.974Z,59.30
2018-12-31T00:26:53.844Z,59.20
2018-12-31T00:29:42.055Z,59.20
2018-12-31T00:32:30.203Z,59.30
2018-12-31T00:35:18.123Z,59.30
2018-12-31T00:38:06.280Z,59.20
2018-12-31T00:40:54.203Z,59.10
2018-12-31T00:43:42.147Z,59.20
2018-12-31T00:46:10.729Z,59.40
2018-12-31T00:48:58.994Z,59.20
2018-12-31T00:51:47.131Z,59.20
2018-12-31T00:54:35.067Z,59.30
2018-12-31T00:57:22.975Z,59.20
2018-12-31T01:00:11.139Z,59.90
2018-12-31T01:02:59.047Z,59.30
2018-12-31T01:05:47.221Z,59.30
2018-12-31T01:08:36.024Z,59.20
2018-12-31T01:11:24.152Z,59.20
2018-12-31T13:52:08.746Z,59.30
2018-12-31T14:01:29.594Z,58.50
2018-12-31T14:04:17.507Z,59.10
2018-12-31T14:07:05.979Z,59.20
2018-12-31T17:50:56.818Z,60.40
2018-12-31T17:53:25.866Z,60.30
2018-12-31T18:02:51.751Z,60.40
2018-12-31T18:05:21.247Z,60.30
2018-12-31T18:07:50.367Z,60.30
2018-12-31T18:10:19.510Z,60.30
2018-12-31T18:12:48.131Z,60.10
2018-12-31T18:15:17.039Z,60.10
2018-12-31T18:17:46.114Z,60.10
2018-12-31T18:23:43.676Z,59.90
2018-12-31T18:26:13.234Z,59.90
2018-12-31T18:32:11.082Z,59.90
2018-12-31T18:34:40.948Z,60.00
2018-12-31T18:40:40.280Z,60.00
2018-12-31T18:46:39.809Z,60.00
2018-12-31T18:52:22.326Z,60.10
2018-12-31T18:58:06.326Z,60.00
2018-12-31T19:01:06.743Z,60.00
2018-12-31T19:03:45.497Z,60.10
2018-12-31T19:06:34.771Z,60.00
2018-12-31T19:12:23.307Z,60.00
2018-12-31T19:14:53.235Z,60.20
2018-12-31T19:17:22.166Z,60.10
2018-12-31T19:20:10.183Z,60.00
2018-12-31T19:22:58.070Z,59.90
2018-12-31T19:25:46.007Z,60.00
2018-12-31T19:28:33.935Z,60.00
2018-12-31T19:31:21.911Z,59.90
2018-12-31T19:34:10.027Z,60.10
2018-12-31T19:36:58.203Z,60.10
2018-12-31T19:39:46.450Z,60.10
2018-12-31T19:42:34.366Z,59.90
2018-12-31T19:45:22.834Z,59.90
2018-12-31T19:48:10.717Z,59.90
2018-12-31T19:50:58.890Z,60.00
2018-12-31T19:53:46.762Z,60.10
2018-12-31T19:59:28.424Z,59.90
2018-12-31T20:02:16.898Z,60.00
2018-12-31T20:05:04.835Z,60.10
2018-12-31T20:07:53.050Z,60.20
2018-12-31T20:10:41.536Z,60.10
2018-12-31T20:13:30.421Z,60.20
2018-12-31T20:16:18.639Z,60.20
2018-12-31T20:18:59.493Z,60.10
2018-12-31T20:21:28.159Z,59.90
2018-12-31T21:04:11.490Z,60.50
2018-12-31T21:06:40.101Z,60.40
2018-12-31T23:14:27.013Z,60.30
2018-12-31T23:20:24.444Z,60.40
2018-12-31T23:22:53.424Z,60.30
2018-12-31T23:29:02.498Z,60.40
2018-12-31T23:34:43.215Z,60.30
2018-12-31T23:37:12.130Z,60.30
